Terminal Aerodrome Forecast
Issued by NWS Green Bay, WI

Home | Current Version | Previous Version | Text Only | Print | Product List | Glossary Off
Versions: 1 2 3 4 5 6 7 8 9 10 11 12 13 14 15 16 17

000
FTUS43 KGRB 222320
TAFGRB
TAF
KGRB 222320Z 2300/2324 14004KT P6SM BKN200
     FM230800 16004KT P6SM BKN120
     FM231200 16008KT P6SM OVC080
     FM231600 16013G20KT P6SM OVC080
     FM232200 16011G16KT P6SM VCSH OVC050=

USA.gov is the U.S. government's official web portal to all federal, state and local government web resources and services.